sensor_id;sensor_type;location;lat;lon;timestamp;P1;durP1;ratioP1;P2;durP2;ratioP2
46439;SDS011;32138;50.966;6.968;2022-07-10T00:02:58;5.50;;;1.67;;
46439;SDS011;32138;50.966;6.968;2022-07-10T00:05:59;3.03;;;1.20;;
46439;SDS011;32138;50.966;6.968;2022-07-10T00:09:00;12.43;;;2.05;;
46439;SDS011;32138;50.966;6.968;2022-07-10T00:12:00;5.85;;;1.85;;
46439;SDS011;32138;50.966;6.968;2022-07-10T00:15:01;9.90;;;1.83;;
46439;SDS011;32138;50.966;6.968;2022-07-10T00:18:03;9.35;;;1.70;;
46439;SDS011;32138;50.966;6.968;2022-07-10T00:21:03;7.57;;;1.90;;
46439;SDS011;32138;50.966;6.968;2022-07-10T00:24:05;6.05;;;1.58;;
46439;SDS011;32138;50.966;6.968;2022-07-10T00:27:05;6.15;;;1.88;;
46439;SDS011;32138;50.966;6.968;2022-07-10T00:30:07;4.50;;;1.52;;
46439;SDS011;32138;50.966;6.968;2022-07-10T00:33:08;7.88;;;1.88;;
46439;SDS011;32138;50.966;6.968;2022-07-10T00:36:09;6.15;;;1.50;;
46439;SDS011;32138;50.966;6.968;2022-07-10T00:39:10;7.35;;;1.95;;
46439;SDS011;32138;50.966;6.968;2022-07-10T00:42:11;5.95;;;1.75;;
46439;SDS011;32138;50.966;6.968;2022-07-10T00:45:13;4.68;;;1.92;;
46439;SDS011;32138;50.966;6.968;2022-07-10T00:48:14;5.95;;;2.25;;
46439;SDS011;32138;50.966;6.968;2022-07-10T00:51:15;7.47;;;2.20;;
46439;SDS011;32138;50.966;6.968;2022-07-10T00:54:17;7.32;;;2.17;;
46439;SDS011;32138;50.966;6.968;2022-07-10T00:57:18;6.70;;;1.70;;
46439;SDS011;32138;50.966;6.968;2022-07-10T01:00:20;6.07;;;2.15;;
46439;SDS011;32138;50.966;6.968;2022-07-10T01:03:21;7.70;;;1.98;;
46439;SDS011;32138;50.966;6.968;2022-07-10T01:06:22;4.10;;;1.63;;
46439;SDS011;32138;50.966;6.968;2022-07-10T01:09:23;5.35;;;1.92;;
46439;SDS011;32138;50.966;6.968;2022-07-10T01:12:23;5.70;;;1.73;;
46439;SDS011;32138;50.966;6.968;2022-07-10T01:15:24;9.65;;;2.35;;
46439;SDS011;32138;50.966;6.968;2022-07-10T01:18:25;5.07;;;1.58;;
46439;SDS011;32138;50.966;6.968;2022-07-10T01:21:30;7.35;;;1.48;;
46439;SDS011;32138;50.966;6.968;2022-07-10T01:24:31;7.78;;;2.03;;
46439;SDS011;32138;50.966;6.968;2022-07-10T01:27:32;5.28;;;1.45;;
46439;SDS011;32138;50.966;6.968;2022-07-10T01:30:33;7.80;;;1.95;;
46439;SDS011;32138;50.966;6.968;2022-07-10T01:33:33;7.18;;;2.03;;
46439;SDS011;32138;50.966;6.968;2022-07-10T01:36:34;5.47;;;1.50;;
46439;SDS011;32138;50.966;6.968;2022-07-10T01:39:35;7.45;;;1.88;;
46439;SDS011;32138;50.966;6.968;2022-07-10T01:42:36;6.53;;;1.48;;
46439;SDS011;32138;50.966;6.968;2022-07-10T01:45:37;6.97;;;1.95;;
46439;SDS011;32138;50.966;6.968;2022-07-10T01:48:38;8.65;;;2.13;;
46439;SDS011;32138;50.966;6.968;2022-07-10T01:51:39;4.68;;;1.95;;
46439;SDS011;32138;50.966;6.968;2022-07-10T01:54:40;7.07;;;2.53;;
46439;SDS011;32138;50.966;6.968;2022-07-10T01:57:41;8.07;;;2.00;;
46439;SDS011;32138;50.966;6.968;2022-07-10T02:00:41;5.38;;;1.77;;
46439;SDS011;32138;50.966;6.968;2022-07-10T02:03:42;6.53;;;1.90;;
46439;SDS011;32138;50.966;6.968;2022-07-10T02:07:01;4.63;;;1.95;;
46439;SDS011;32138;50.966;6.968;2022-07-10T02:10:02;6.32;;;2.25;;
46439;SDS011;32138;50.966;6.968;2022-07-10T02:13:03;6.10;;;2.55;;
46439;SDS011;32138;50.966;6.968;2022-07-10T02:16:04;7.70;;;2.53;;
46439;SDS011;32138;50.966;6.968;2022-07-10T02:19:05;5.88;;;1.95;;
46439;SDS011;32138;50.966;6.968;2022-07-10T02:22:05;8.73;;;2.55;;
46439;SDS011;32138;50.966;6.968;2022-07-10T02:25:06;6.05;;;1.50;;
46439;SDS011;32138;50.966;6.968;2022-07-10T02:28:07;5.00;;;1.80;;
46439;SDS011;32138;50.966;6.968;2022-07-10T02:31:08;5.30;;;1.58;;
46439;SDS011;32138;50.966;6.968;2022-07-10T02:34:09;7.10;;;1.40;;
46439;SDS011;32138;50.966;6.968;2022-07-10T02:37:11;4.70;;;1.70;;
46439;SDS011;32138;50.966;6.968;2022-07-10T02:40:12;4.65;;;1.42;;
46439;SDS011;32138;50.966;6.968;2022-07-10T02:43:12;6.15;;;1.75;;
46439;SDS011;32138;50.966;6.968;2022-07-10T02:46:13;6.70;;;1.52;;
46439;SDS011;32138;50.966;6.968;2022-07-10T02:49:14;10.48;;;2.45;;
46439;SDS011;32138;50.966;6.968;2022-07-10T02:52:15;4.85;;;1.60;;
46439;SDS011;32138;50.966;6.968;2022-07-10T02:55:15;5.95;;;1.88;;
46439;SDS011;32138;50.966;6.968;2022-07-10T02:58:16;10.48;;;1.52;;
46439;SDS011;32138;50.966;6.968;2022-07-10T03:01:17;6.82;;;1.70;;
46439;SDS011;32138;50.966;6.968;2022-07-10T03:04:18;4.78;;;1.70;;
46439;SDS011;32138;50.966;6.968;2022-07-10T03:07:18;6.85;;;1.50;;
46439;SDS011;32138;50.966;6.968;2022-07-10T03:10:19;6.32;;;1.50;;
46439;SDS011;32138;50.966;6.968;2022-07-10T03:13:20;7.05;;;1.95;;
46439;SDS011;32138;50.966;6.968;2022-07-10T03:16:21;5.47;;;1.35;;
46439;SDS011;32138;50.966;6.968;2022-07-10T03:19:21;7.25;;;2.13;;
46439;SDS011;32138;50.966;6.968;2022-07-10T03:22:22;8.93;;;1.65;;
46439;SDS011;32138;50.966;6.968;2022-07-10T03:25:22;5.20;;;1.75;;
46439;SDS011;32138;50.966;6.968;2022-07-10T03:28:23;8.63;;;2.17;;
46439;SDS011;32138;50.966;6.968;2022-07-10T03:31:24;9.15;;;1.85;;
46439;SDS011;32138;50.966;6.968;2022-07-10T03:34:24;4.40;;;1.88;;
46439;SDS011;32138;50.966;6.968;2022-07-10T03:37:25;10.98;;;2.00;;
46439;SDS011;32138;50.966;6.968;2022-07-10T03:40:26;5.50;;;1.65;;
46439;SDS011;32138;50.966;6.968;2022-07-10T03:43:27;6.53;;;1.58;;
46439;SDS011;32138;50.966;6.968;2022-07-10T03:46:28;6.85;;;1.67;;
46439;SDS011;32138;50.966;6.968;2022-07-10T03:49:29;7.57;;;2.08;;
46439;SDS011;32138;50.966;6.968;2022-07-10T03:52:29;4.60;;;1.60;;
46439;SDS011;32138;50.966;6.968;2022-07-10T03:55:31;4.90;;;1.63;;
46439;SDS011;32138;50.966;6.968;2022-07-10T03:58:31;7.25;;;1.23;;
46439;SDS011;32138;50.966;6.968;2022-07-10T04:01:32;5.85;;;2.25;;
46439;SDS011;32138;50.966;6.968;2022-07-10T04:04:32;8.93;;;1.60;;
46439;SDS011;32138;50.966;6.968;2022-07-10T04:07:33;8.10;;;2.10;;
46439;SDS011;32138;50.966;6.968;2022-07-10T04:10:35;4.63;;;1.45;;
46439;SDS011;32138;50.966;6.968;2022-07-10T04:13:36;5.28;;;1.75;;
46439;SDS011;32138;50.966;6.968;2022-07-10T04:16:36;5.95;;;1.63;;
46439;SDS011;32138;50.966;6.968;2022-07-10T04:19:37;6.93;;;1.77;;
46439;SDS011;32138;50.966;6.968;2022-07-10T04:22:38;11.65;;;2.22;;
46439;SDS011;32138;50.966;6.968;2022-07-10T04:25:38;9.52;;;1.58;;
46439;SDS011;32138;50.966;6.968;2022-07-10T04:28:39;6.50;;;1.58;;
46439;SDS011;32138;50.966;6.968;2022-07-10T04:31:40;6.35;;;1.80;;
46439;SDS011;32138;50.966;6.968;2022-07-10T04:34:40;8.02;;;2.20;;
46439;SDS011;32138;50.966;6.968;2022-07-10T04:37:41;7.82;;;2.05;;
46439;SDS011;32138;50.966;6.968;2022-07-10T04:40:42;6.10;;;1.48;;
46439;SDS011;32138;50.966;6.968;2022-07-10T04:43:42;9.70;;;2.72;;
46439;SDS011;32138;50.966;6.968;2022-07-10T04:46:43;6.43;;;1.70;;
46439;SDS011;32138;50.966;6.968;2022-07-10T04:49:43;8.73;;;1.50;;
46439;SDS011;32138;50.966;6.968;2022-07-10T04:52:44;8.63;;;1.88;;
46439;SDS011;32138;50.966;6.968;2022-07-10T04:55:45;9.05;;;1.88;;
46439;SDS011;32138;50.966;6.968;2022-07-10T04:58:46;7.63;;;1.77;;
46439;SDS011;32138;50.966;6.968;2022-07-10T05:01:47;7.53;;;1.90;;
46439;SDS011;32138;50.966;6.968;2022-07-10T05:04:47;8.02;;;1.90;;
46439;SDS011;32138;50.966;6.968;2022-07-10T05:07:48;6.53;;;1.70;;
46439;SDS011;32138;50.966;6.968;2022-07-10T05:10:48;6.13;;;1.75;;
46439;SDS011;32138;50.966;6.968;2022-07-10T05:13:49;10.13;;;2.22;;
46439;SDS011;32138;50.966;6.968;2022-07-10T05:16:49;5.32;;;1.88;;
46439;SDS011;32138;50.966;6.968;2022-07-10T05:19:50;5.60;;;2.03;;
46439;SDS011;32138;50.966;6.968;2022-07-10T05:22:53;5.32;;;2.08;;
46439;SDS011;32138;50.966;6.968;2022-07-10T05:25:54;4.68;;;2.00;;
46439;SDS011;32138;50.966;6.968;2022-07-10T05:28:54;7.15;;;2.38;;
46439;SDS011;32138;50.966;6.968;2022-07-10T05:31:55;8.55;;;2.80;;
46439;SDS011;32138;50.966;6.968;2022-07-10T05:34:56;6.93;;;2.65;;
46439;SDS011;32138;50.966;6.968;2022-07-10T05:37:58;10.48;;;2.35;;
46439;SDS011;32138;50.966;6.968;2022-07-10T05:40:59;8.07;;;2.40;;
46439;SDS011;32138;50.966;6.968;2022-07-10T05:44:00;7.88;;;1.83;;
46439;SDS011;32138;50.966;6.968;2022-07-10T05:47:01;6.78;;;3.17;;
46439;SDS011;32138;50.966;6.968;2022-07-10T05:50:01;7.90;;;2.60;;
46439;SDS011;32138;50.966;6.968;2022-07-10T05:53:02;9.45;;;2.28;;
46439;SDS011;32138;50.966;6.968;2022-07-10T05:56:03;6.95;;;2.55;;
46439;SDS011;32138;50.966;6.968;2022-07-10T05:59:04;7.10;;;2.17;;
46439;SDS011;32138;50.966;6.968;2022-07-10T06:02:05;8.20;;;2.20;;
46439;SDS011;32138;50.966;6.968;2022-07-10T06:05:06;9.73;;;3.08;;
46439;SDS011;32138;50.966;6.968;2022-07-10T06:08:07;5.57;;;2.03;;
46439;SDS011;32138;50.966;6.968;2022-07-10T06:11:07;6.65;;;2.22;;
46439;SDS011;32138;50.966;6.968;2022-07-10T06:14:08;8.02;;;1.85;;
46439;SDS011;32138;50.966;6.968;2022-07-10T06:17:09;7.63;;;2.10;;
46439;SDS011;32138;50.966;6.968;2022-07-10T06:20:09;9.30;;;1.98;;
46439;SDS011;32138;50.966;6.968;2022-07-10T06:23:10;6.45;;;1.85;;
46439;SDS011;32138;50.966;6.968;2022-07-10T06:26:11;7.65;;;2.08;;
46439;SDS011;32138;50.966;6.968;2022-07-10T06:29:11;9.52;;;3.40;;
46439;SDS011;32138;50.966;6.968;2022-07-10T06:32:12;8.27;;;2.42;;
46439;SDS011;32138;50.966;6.968;2022-07-10T06:35:12;6.80;;;2.47;;
46439;SDS011;32138;50.966;6.968;2022-07-10T06:38:13;6.65;;;2.42;;
46439;SDS011;32138;50.966;6.968;2022-07-10T06:41:14;8.73;;;3.22;;
46439;SDS011;32138;50.966;6.968;2022-07-10T06:44:14;9.30;;;2.83;;
46439;SDS011;32138;50.966;6.968;2022-07-10T06:47:16;6.30;;;2.42;;
46439;SDS011;32138;50.966;6.968;2022-07-10T06:50:36;4.72;;;2.00;;
46439;SDS011;32138;50.966;6.968;2022-07-10T06:53:37;9.73;;;2.20;;
46439;SDS011;32138;50.966;6.968;2022-07-10T06:56:38;9.57;;;2.50;;
46439;SDS011;32138;50.966;6.968;2022-07-10T06:59:38;7.72;;;2.03;;
46439;SDS011;32138;50.966;6.968;2022-07-10T07:02:39;5.95;;;1.90;;
46439;SDS011;32138;50.966;6.968;2022-07-10T07:05:40;7.70;;;2.00;;
46439;SDS011;32138;50.966;6.968;2022-07-10T07:08:40;6.40;;;1.73;;
46439;SDS011;32138;50.966;6.968;2022-07-10T07:11:42;10.52;;;2.28;;
46439;SDS011;32138;50.966;6.968;2022-07-10T07:14:43;6.22;;;1.95;;
46439;SDS011;32138;50.966;6.968;2022-07-10T07:17:44;5.38;;;1.83;;
46439;SDS011;32138;50.966;6.968;2022-07-10T07:20:56;6.82;;;2.25;;
46439;SDS011;32138;50.966;6.968;2022-07-10T07:24:16;7.95;;;2.25;;
46439;SDS011;32138;50.966;6.968;2022-07-10T07:27:18;6.68;;;1.70;;
46439;SDS011;32138;50.966;6.968;2022-07-10T07:30:19;12.18;;;2.20;;
46439;SDS011;32138;50.966;6.968;2022-07-10T07:33:20;6.95;;;2.00;;
46439;SDS011;32138;50.966;6.968;2022-07-10T07:36:20;5.72;;;2.30;;
46439;SDS011;32138;50.966;6.968;2022-07-10T07:39:21;8.13;;;2.38;;
46439;SDS011;32138;50.966;6.968;2022-07-10T07:42:21;9.20;;;2.75;;
46439;SDS011;32138;50.966;6.968;2022-07-10T07:45:22;7.05;;;2.15;;
46439;SDS011;32138;50.966;6.968;2022-07-10T07:48:24;9.45;;;2.83;;
46439;SDS011;32138;50.966;6.968;2022-07-10T07:51:24;9.38;;;3.55;;
46439;SDS011;32138;50.966;6.968;2022-07-10T07:54:25;8.05;;;2.90;;
46439;SDS011;32138;50.966;6.968;2022-07-10T07:57:25;5.40;;;2.00;;
46439;SDS011;32138;50.966;6.968;2022-07-10T08:00:26;9.15;;;2.55;;
46439;SDS011;32138;50.966;6.968;2022-07-10T08:03:28;6.63;;;1.98;;
46439;SDS011;32138;50.966;6.968;2022-07-10T08:06:28;6.43;;;2.00;;
46439;SDS011;32138;50.966;6.968;2022-07-10T08:09:29;6.45;;;2.00;;
46439;SDS011;32138;50.966;6.968;2022-07-10T08:12:29;7.30;;;2.17;;
46439;SDS011;32138;50.966;6.968;2022-07-10T08:15:30;13.73;;;3.40;;
46439;SDS011;32138;50.966;6.968;2022-07-10T08:18:31;11.70;;;2.95;;
46439;SDS011;32138;50.966;6.968;2022-07-10T08:21:31;4.90;;;2.15;;
46439;SDS011;32138;50.966;6.968;2022-07-10T08:24:32;5.82;;;2.33;;
46439;SDS011;32138;50.966;6.968;2022-07-10T08:27:33;11.00;;;3.72;;
46439;SDS011;32138;50.966;6.968;2022-07-10T08:30:34;10.13;;;2.80;;
46439;SDS011;32138;50.966;6.968;2022-07-10T08:33:34;13.10;;;2.67;;
46439;SDS011;32138;50.966;6.968;2022-07-10T08:36:35;13.32;;;2.80;;
46439;SDS011;32138;50.966;6.968;2022-07-10T08:39:35;8.70;;;2.75;;
46439;SDS011;32138;50.966;6.968;2022-07-10T08:42:38;7.55;;;2.80;;
46439;SDS011;32138;50.966;6.968;2022-07-10T08:45:39;9.07;;;2.55;;
46439;SDS011;32138;50.966;6.968;2022-07-10T08:48:41;7.35;;;2.45;;
46439;SDS011;32138;50.966;6.968;2022-07-10T08:54:56;6.90;;;2.83;;
46439;SDS011;32138;50.966;6.968;2022-07-10T08:57:57;12.68;;;3.80;;
46439;SDS011;32138;50.966;6.968;2022-07-10T09:00:59;11.52;;;4.30;;
46439;SDS011;32138;50.966;6.968;2022-07-10T09:04:00;10.63;;;4.20;;
46439;SDS011;32138;50.966;6.968;2022-07-10T09:07:01;13.18;;;4.07;;
46439;SDS011;32138;50.966;6.968;2022-07-10T09:10:05;8.25;;;3.70;;
46439;SDS011;32138;50.966;6.968;2022-07-10T09:13:07;8.18;;;2.72;;
46439;SDS011;32138;50.966;6.968;2022-07-10T09:16:07;6.93;;;2.97;;
46439;SDS011;32138;50.966;6.968;2022-07-10T09:19:27;6.53;;;2.83;;
46439;SDS011;32138;50.966;6.968;2022-07-10T09:22:28;4.38;;;2.28;;
46439;SDS011;32138;50.966;6.968;2022-07-10T09:25:35;11.73;;;3.35;;
46439;SDS011;32138;50.966;6.968;2022-07-10T09:28:36;5.15;;;3.00;;
46439;SDS011;32138;50.966;6.968;2022-07-10T09:31:49;6.38;;;2.60;;
46439;SDS011;32138;50.966;6.968;2022-07-10T09:34:51;5.72;;;2.53;;
46439;SDS011;32138;50.966;6.968;2022-07-10T09:38:11;5.68;;;2.80;;
46439;SDS011;32138;50.966;6.968;2022-07-10T09:41:22;6.70;;;2.55;;
46439;SDS011;32138;50.966;6.968;2022-07-10T09:44:27;16.15;;;2.75;;
46439;SDS011;32138;50.966;6.968;2022-07-10T09:47:27;10.05;;;2.80;;
46439;SDS011;32138;50.966;6.968;2022-07-10T09:50:32;8.15;;;3.17;;
46439;SDS011;32138;50.966;6.968;2022-07-10T09:53:37;13.00;;;3.30;;
46439;SDS011;32138;50.966;6.968;2022-07-10T09:56:40;13.43;;;6.05;;
46439;SDS011;32138;50.966;6.968;2022-07-10T09:59:46;9.80;;;3.60;;
46439;SDS011;32138;50.966;6.968;2022-07-10T10:02:47;9.82;;;3.03;;
46439;SDS011;32138;50.966;6.968;2022-07-10T10:05:57;7.85;;;3.05;;
46439;SDS011;32138;50.966;6.968;2022-07-10T10:12:26;5.97;;;2.27;;
46439;SDS011;32138;50.966;6.968;2022-07-10T10:15:28;7.55;;;2.60;;
46439;SDS011;32138;50.966;6.968;2022-07-10T10:18:30;9.25;;;3.63;;
46439;SDS011;32138;50.966;6.968;2022-07-10T10:21:31;7.80;;;2.25;;
46439;SDS011;32138;50.966;6.968;2022-07-10T10:24:34;5.65;;;1.88;;
46439;SDS011;32138;50.966;6.968;2022-07-10T10:27:38;6.85;;;2.50;;
46439;SDS011;32138;50.966;6.968;2022-07-10T10:30:41;10.57;;;2.30;;
46439;SDS011;32138;50.966;6.968;2022-07-10T10:33:43;7.50;;;2.15;;
46439;SDS011;32138;50.966;6.968;2022-07-10T10:36:45;7.90;;;2.05;;
46439;SDS011;32138;50.966;6.968;2022-07-10T10:39:53;7.68;;;2.20;;
46439;SDS011;32138;50.966;6.968;2022-07-10T10:42:55;14.55;;;2.47;;
46439;SDS011;32138;50.966;6.968;2022-07-10T10:45:55;7.38;;;2.15;;
46439;SDS011;32138;50.966;6.968;2022-07-10T10:49:05;7.35;;;1.70;;
46439;SDS011;32138;50.966;6.968;2022-07-10T10:52:10;5.78;;;2.25;;
46439;SDS011;32138;50.966;6.968;2022-07-10T10:55:11;7.68;;;2.03;;
46439;SDS011;32138;50.966;6.968;2022-07-10T10:58:15;8.50;;;1.90;;
46439;SDS011;32138;50.966;6.968;2022-07-10T11:04:21;8.98;;;2.75;;
46439;SDS011;32138;50.966;6.968;2022-07-10T11:10:54;7.20;;;1.92;;
46439;SDS011;32138;50.966;6.968;2022-07-10T11:13:58;5.50;;;1.73;;
46439;SDS011;32138;50.966;6.968;2022-07-10T11:16:59;6.97;;;2.05;;
46439;SDS011;32138;50.966;6.968;2022-07-10T11:20:01;7.15;;;2.17;;
46439;SDS011;32138;50.966;6.968;2022-07-10T11:26:35;6.28;;;1.85;;
46439;SDS011;32138;50.966;6.968;2022-07-10T11:29:41;7.50;;;1.73;;
46439;SDS011;32138;50.966;6.968;2022-07-10T11:32:41;5.88;;;1.85;;
46439;SDS011;32138;50.966;6.968;2022-07-10T11:35:45;5.13;;;2.33;;
46439;SDS011;32138;50.966;6.968;2022-07-10T11:38:47;4.70;;;2.35;;
46439;SDS011;32138;50.966;6.968;2022-07-10T11:41:48;3.47;;;1.20;;
46439;SDS011;32138;50.966;6.968;2022-07-10T11:44:49;3.35;;;1.30;;
46439;SDS011;32138;50.966;6.968;2022-07-10T11:47:49;3.20;;;1.00;;
46439;SDS011;32138;50.966;6.968;2022-07-10T11:50:50;2.78;;;1.25;;
46439;SDS011;32138;50.966;6.968;2022-07-10T11:53:54;4.85;;;1.23;;
46439;SDS011;32138;50.966;6.968;2022-07-10T11:57:05;4.03;;;1.42;;
46439;SDS011;32138;50.966;6.968;2022-07-10T12:00:20;2.72;;;1.00;;
46439;SDS011;32138;50.966;6.968;2022-07-10T12:03:21;3.13;;;1.00;;
46439;SDS011;32138;50.966;6.968;2022-07-10T12:06:21;2.85;;;1.10;;
46439;SDS011;32138;50.966;6.968;2022-07-10T12:09:24;4.38;;;0.90;;
46439;SDS011;32138;50.966;6.968;2022-07-10T12:12:24;2.78;;;1.30;;
46439;SDS011;32138;50.966;6.968;2022-07-10T12:18:58;2.83;;;1.27;;
46439;SDS011;32138;50.966;6.968;2022-07-10T12:22:00;5.28;;;1.45;;
46439;SDS011;32138;50.966;6.968;2022-07-10T12:25:01;3.30;;;1.17;;
46439;SDS011;32138;50.966;6.968;2022-07-10T12:28:05;3.72;;;1.40;;
46439;SDS011;32138;50.966;6.968;2022-07-10T12:31:06;4.95;;;1.50;;
46439;SDS011;32138;50.966;6.968;2022-07-10T12:34:06;3.80;;;1.30;;
46439;SDS011;32138;50.966;6.968;2022-07-10T12:37:08;5.15;;;1.15;;
46439;SDS011;32138;50.966;6.968;2022-07-10T12:40:10;4.78;;;1.70;;
46439;SDS011;32138;50.966;6.968;2022-07-10T12:43:29;2.95;;;1.20;;
46439;SDS011;32138;50.966;6.968;2022-07-10T12:46:30;10.68;;;1.83;;
46439;SDS011;32138;50.966;6.968;2022-07-10T12:49:30;5.90;;;1.60;;
46439;SDS011;32138;50.966;6.968;2022-07-10T12:53:13;6.05;;;1.63;;
46439;SDS011;32138;50.966;6.968;2022-07-10T12:56:31;5.45;;;1.40;;
46439;SDS011;32138;50.966;6.968;2022-07-10T12:59:36;3.30;;;1.65;;
46439;SDS011;32138;50.966;6.968;2022-07-10T13:02:37;5.90;;;1.55;;
46439;SDS011;32138;50.966;6.968;2022-07-10T13:05:38;3.38;;;1.33;;
46439;SDS011;32138;50.966;6.968;2022-07-10T13:08:44;3.85;;;1.70;;
46439;SDS011;32138;50.966;6.968;2022-07-10T13:11:46;4.28;;;1.98;;
46439;SDS011;32138;50.966;6.968;2022-07-10T13:14:47;3.83;;;2.00;;
46439;SDS011;32138;50.966;6.968;2022-07-10T13:17:48;5.28;;;1.90;;
46439;SDS011;32138;50.966;6.968;2022-07-10T13:20:50;6.95;;;1.90;;
46439;SDS011;32138;50.966;6.968;2022-07-10T13:23:52;3.33;;;2.03;;
46439;SDS011;32138;50.966;6.968;2022-07-10T13:26:55;3.67;;;1.80;;
46439;SDS011;32138;50.966;6.968;2022-07-10T13:29:57;4.20;;;1.90;;
46439;SDS011;32138;50.966;6.968;2022-07-10T13:32:57;7.75;;;2.38;;
46439;SDS011;32138;50.966;6.968;2022-07-10T13:35:59;7.10;;;2.58;;
46439;SDS011;32138;50.966;6.968;2022-07-10T13:39:00;5.75;;;2.28;;
46439;SDS011;32138;50.966;6.968;2022-07-10T13:42:01;6.45;;;1.98;;
46439;SDS011;32138;50.966;6.968;2022-07-10T13:45:02;5.45;;;2.05;;
46439;SDS011;32138;50.966;6.968;2022-07-10T13:48:03;5.10;;;2.03;;
46439;SDS011;32138;50.966;6.968;2022-07-10T13:51:04;4.80;;;1.70;;
46439;SDS011;32138;50.966;6.968;2022-07-10T13:54:05;5.03;;;1.95;;
46439;SDS011;32138;50.966;6.968;2022-07-10T13:57:05;8.32;;;2.17;;
46439;SDS011;32138;50.966;6.968;2022-07-10T14:00:06;7.25;;;1.88;;
46439;SDS011;32138;50.966;6.968;2022-07-10T14:03:07;6.25;;;2.83;;
46439;SDS011;32138;50.966;6.968;2022-07-10T14:06:09;7.38;;;2.67;;
46439;SDS011;32138;50.966;6.968;2022-07-10T14:09:10;4.72;;;1.98;;
46439;SDS011;32138;50.966;6.968;2022-07-10T14:12:11;6.47;;;3.05;;
46439;SDS011;32138;50.966;6.968;2022-07-10T14:15:12;7.20;;;2.25;;
46439;SDS011;32138;50.966;6.968;2022-07-10T14:18:13;5.25;;;2.42;;
46439;SDS011;32138;50.966;6.968;2022-07-10T14:21:33;8.65;;;2.58;;
46439;SDS011;32138;50.966;6.968;2022-07-10T14:24:34;4.60;;;2.03;;
46439;SDS011;32138;50.966;6.968;2022-07-10T14:27:35;6.78;;;2.25;;
46439;SDS011;32138;50.966;6.968;2022-07-10T14:30:35;5.88;;;1.75;;
46439;SDS011;32138;50.966;6.968;2022-07-10T14:33:36;6.28;;;2.53;;
46439;SDS011;32138;50.966;6.968;2022-07-10T14:36:37;8.80;;;2.75;;
46439;SDS011;32138;50.966;6.968;2022-07-10T14:39:37;8.13;;;2.60;;
46439;SDS011;32138;50.966;6.968;2022-07-10T14:42:38;4.95;;;1.90;;
46439;SDS011;32138;50.966;6.968;2022-07-10T14:45:39;8.13;;;2.08;;
46439;SDS011;32138;50.966;6.968;2022-07-10T14:48:40;3.42;;;1.75;;
46439;SDS011;32138;50.966;6.968;2022-07-10T14:51:41;7.18;;;2.88;;
46439;SDS011;32138;50.966;6.968;2022-07-10T14:54:42;5.43;;;2.38;;
46439;SDS011;32138;50.966;6.968;2022-07-10T14:57:42;3.75;;;1.38;;
46439;SDS011;32138;50.966;6.968;2022-07-10T15:00:43;5.28;;;1.92;;
46439;SDS011;32138;50.966;6.968;2022-07-10T15:03:44;6.90;;;2.20;;
46439;SDS011;32138;50.966;6.968;2022-07-10T15:06:45;10.50;;;2.47;;
46439;SDS011;32138;50.966;6.968;2022-07-10T15:09:47;7.70;;;2.33;;
46439;SDS011;32138;50.966;6.968;2022-07-10T15:12:48;7.15;;;2.70;;
46439;SDS011;32138;50.966;6.968;2022-07-10T15:15:48;8.32;;;3.33;;
46439;SDS011;32138;50.966;6.968;2022-07-10T15:18:51;7.03;;;3.13;;
46439;SDS011;32138;50.966;6.968;2022-07-10T15:21:51;7.88;;;2.85;;
46439;SDS011;32138;50.966;6.968;2022-07-10T15:24:52;4.80;;;2.08;;
46439;SDS011;32138;50.966;6.968;2022-07-10T15:27:52;4.28;;;1.88;;
46439;SDS011;32138;50.966;6.968;2022-07-10T15:30:53;4.35;;;2.10;;
46439;SDS011;32138;50.966;6.968;2022-07-10T15:33:54;7.40;;;2.28;;
46439;SDS011;32138;50.966;6.968;2022-07-10T15:36:54;6.90;;;2.60;;
46439;SDS011;32138;50.966;6.968;2022-07-10T15:39:55;8.15;;;2.47;;
46439;SDS011;32138;50.966;6.968;2022-07-10T15:42:56;6.72;;;2.53;;
46439;SDS011;32138;50.966;6.968;2022-07-10T15:45:57;8.02;;;3.40;;
46439;SDS011;32138;50.966;6.968;2022-07-10T15:48:59;6.80;;;2.47;;
46439;SDS011;32138;50.966;6.968;2022-07-10T15:52:00;6.30;;;2.47;;
46439;SDS011;32138;50.966;6.968;2022-07-10T15:55:00;3.75;;;1.80;;
46439;SDS011;32138;50.966;6.968;2022-07-10T15:58:01;3.60;;;1.90;;
46439;SDS011;32138;50.966;6.968;2022-07-10T16:01:01;7.88;;;2.55;;
46439;SDS011;32138;50.966;6.968;2022-07-10T16:04:02;4.13;;;2.00;;
46439;SDS011;32138;50.966;6.968;2022-07-10T16:07:03;7.07;;;1.83;;
46439;SDS011;32138;50.966;6.968;2022-07-10T16:10:04;6.03;;;2.08;;
46439;SDS011;32138;50.966;6.968;2022-07-10T16:13:05;5.68;;;1.80;;
46439;SDS011;32138;50.966;6.968;2022-07-10T16:16:06;6.15;;;2.42;;
46439;SDS011;32138;50.966;6.968;2022-07-10T16:19:07;4.68;;;2.13;;
46439;SDS011;32138;50.966;6.968;2022-07-10T16:22:07;8.98;;;2.30;;
46439;SDS011;32138;50.966;6.968;2022-07-10T16:25:08;5.57;;;2.22;;
46439;SDS011;32138;50.966;6.968;2022-07-10T16:28:31;4.10;;;1.80;;
46439;SDS011;32138;50.966;6.968;2022-07-10T16:31:31;4.03;;;1.50;;
46439;SDS011;32138;50.966;6.968;2022-07-10T16:34:33;4.05;;;1.52;;
46439;SDS011;32138;50.966;6.968;2022-07-10T16:37:33;4.53;;;1.75;;
46439;SDS011;32138;50.966;6.968;2022-07-10T16:40:34;4.25;;;1.63;;
46439;SDS011;32138;50.966;6.968;2022-07-10T16:43:35;2.45;;;1.67;;
46439;SDS011;32138;50.966;6.968;2022-07-10T16:46:36;4.50;;;1.85;;
46439;SDS011;32138;50.966;6.968;2022-07-10T16:49:36;5.13;;;1.77;;
46439;SDS011;32138;50.966;6.968;2022-07-10T16:52:37;6.32;;;1.92;;
46439;SDS011;32138;50.966;6.968;2022-07-10T16:55:40;6.13;;;2.00;;
46439;SDS011;32138;50.966;6.968;2022-07-10T16:58:41;5.50;;;1.80;;
46439;SDS011;32138;50.966;6.968;2022-07-10T17:01:42;6.05;;;1.92;;
46439;SDS011;32138;50.966;6.968;2022-07-10T17:04:42;4.75;;;1.60;;
46439;SDS011;32138;50.966;6.968;2022-07-10T17:07:43;5.13;;;2.75;;
46439;SDS011;32138;50.966;6.968;2022-07-10T17:10:44;7.47;;;2.47;;
46439;SDS011;32138;50.966;6.968;2022-07-10T17:13:44;3.55;;;2.20;;
46439;SDS011;32138;50.966;6.968;2022-07-10T17:16:45;6.20;;;1.90;;
46439;SDS011;32138;50.966;6.968;2022-07-10T17:19:46;7.63;;;2.83;;
46439;SDS011;32138;50.966;6.968;2022-07-10T17:22:46;5.65;;;1.80;;
46439;SDS011;32138;50.966;6.968;2022-07-10T17:25:47;6.35;;;2.75;;
46439;SDS011;32138;50.966;6.968;2022-07-10T17:28:48;4.57;;;2.88;;
46439;SDS011;32138;50.966;6.968;2022-07-10T17:31:48;4.72;;;1.60;;
46439;SDS011;32138;50.966;6.968;2022-07-10T17:34:49;6.30;;;2.40;;
46439;SDS011;32138;50.966;6.968;2022-07-10T17:37:50;6.88;;;2.03;;
46439;SDS011;32138;50.966;6.968;2022-07-10T17:40:50;7.13;;;2.15;;
46439;SDS011;32138;50.966;6.968;2022-07-10T17:43:51;4.18;;;1.73;;
46439;SDS011;32138;50.966;6.968;2022-07-10T17:46:52;4.20;;;1.90;;
46439;SDS011;32138;50.966;6.968;2022-07-10T17:49:53;7.90;;;3.15;;
46439;SDS011;32138;50.966;6.968;2022-07-10T17:52:54;6.38;;;2.67;;
46439;SDS011;32138;50.966;6.968;2022-07-10T17:55:55;7.03;;;3.17;;
46439;SDS011;32138;50.966;6.968;2022-07-10T17:58:56;4.85;;;2.17;;
46439;SDS011;32138;50.966;6.968;2022-07-10T18:01:56;5.10;;;1.60;;
46439;SDS011;32138;50.966;6.968;2022-07-10T18:04:57;3.20;;;1.48;;
46439;SDS011;32138;50.966;6.968;2022-07-10T18:07:58;4.38;;;1.90;;
46439;SDS011;32138;50.966;6.968;2022-07-10T18:10:59;5.25;;;2.10;;
46439;SDS011;32138;50.966;6.968;2022-07-10T18:14:01;4.82;;;2.33;;
46439;SDS011;32138;50.966;6.968;2022-07-10T18:17:02;4.93;;;3.33;;
46439;SDS011;32138;50.966;6.968;2022-07-10T18:20:03;5.18;;;2.05;;
46439;SDS011;32138;50.966;6.968;2022-07-10T18:23:04;6.80;;;3.60;;
46439;SDS011;32138;50.966;6.968;2022-07-10T18:26:06;6.40;;;2.10;;
46439;SDS011;32138;50.966;6.968;2022-07-10T18:29:08;4.13;;;2.40;;
46439;SDS011;32138;50.966;6.968;2022-07-10T18:32:09;4.55;;;2.00;;
46439;SDS011;32138;50.966;6.968;2022-07-10T18:35:09;3.90;;;2.58;;